Time;durP1;ratioP1;P1;durP2;ratioP2;P2;SDS_P1;SDS_P2;PMS_P1;PMS_P2;Temp;Humidity;BMP_temperature;BMP_pressure;BME280_temperature;BME280_humidity;BME280_pressure;Samples;Min_cycle;Max_cycle;Signal;HPM_P1;HPM_P2
2022/04/03 00:01:19;;;;;;;14.82;9.73;;;;;;;3.90;64.64;98756.56;7738737;32;36880;-69
2022/04/03 00:05:38;;;;;;;12.37;8.60;;;;;;;3.74;64.92;98756.38;7738598;32;40047;-69
2022/04/03 00:09:54;;;;;;;12.63;8.60;;;;;;;3.82;64.84;98770.47;7738563;32;39950;-69
2022/04/03 00:14:10;;;;;;;12.18;8.18;;;;;;;3.76;65.18;98767.72;7736520;32;39094;-71
2022/04/03 00:18:26;;;;;;;15.80;8.93;;;;;;;3.78;65.07;98772.03;7711942;32;37247;-69
2022/04/03 00:22:48;;;;;;;12.20;8.48;;;;;;;3.64;65.52;98777.81;7716431;32;39422;-69
2022/04/03 00:27:04;;;;;;;12.30;7.75;;;;;;;3.97;64.24;98776.03;7738366;32;40189;-70
2022/04/03 00:31:20;;;;;;;16.65;9.15;;;;;;;4.10;63.86;98781.00;7738348;32;37751;-69
2022/04/03 00:35:36;;;;;;;16.17;9.90;;;;;;;3.93;64.11;98785.69;7738393;32;37164;-69
2022/04/03 00:39:52;;;;;;;14.27;10.00;;;;;;;3.81;64.56;98793.09;7738395;32;39409;-69
2022/04/03 00:44:09;;;;;;;11.85;7.90;;;;;;;4.04;64.03;98790.13;7724470;32;39818;-69
2022/04/03 00:48:26;;;;;;;11.60;7.68;;;;;;;4.16;63.63;98794.56;7738101;32;37973;-69
2022/04/03 00:52:41;;;;;;;9.68;6.15;;;;;;;3.99;63.93;98797.37;7731502;32;37366;-70
2022/04/03 00:56:58;;;;;;;8.88;5.57;;;;;;;4.01;64.11;98804.13;7711342;32;39289;-69
2022/04/03 01:01:14;;;;;;;7.55;5.10;;;;;;;4.11;63.77;98806.94;7711222;32;39870;-68
2022/04/03 01:05:30;;;;;;;6.93;4.72;;;;;;;4.04;64.01;98814.41;7711191;32;38627;-69
2022/04/03 01:09:46;;;;;;;7.12;4.68;;;;;;;4.04;64.17;98813.59;7733497;32;37074;-69
2022/04/03 01:14:02;;;;;;;6.05;4.50;;;;;;;3.83;64.78;98818.75;7722028;32;39306;-69
2022/04/03 01:18:18;;;;;;;6.43;4.62;;;;;;;3.92;64.53;98821.81;7710974;32;39990;-69
2022/04/03 01:22:35;;;;;;;6.53;4.10;;;;;;;3.80;64.84;98829.22;7716820;32;37596;-69
2022/04/03 01:26:52;;;;;;;6.78;4.60;;;;;;;3.74;65.01;98826.47;7737543;32;37845;-68
2022/04/03 01:31:08;;;;;;;6.10;4.32;;;;;;;4.01;64.46;98835.69;7736976;32;39459;-69
2022/04/03 01:35:24;;;;;;;5.53;4.28;;;;;;;3.87;64.54;98840.63;7737478;32;39981;-68
2022/04/03 01:39:40;;;;;;;6.85;4.87;;;;;;;3.89;64.37;98841.19;7737268;32;38811;-69
2022/04/03 01:43:56;;;;;;;8.75;5.78;;;;;;;3.82;64.13;98848.66;7737407;32;36820;-68
2022/04/03 01:48:13;;;;;;;7.10;5.00;;;;;;;4.02;63.77;98853.47;7737527;32;40611;-69
2022/04/03 01:52:29;;;;;;;11.95;6.90;;;;;;;3.86;64.33;98855.19;7721974;32;39933;-69
2022/04/03 01:56:45;;;;;;;12.10;7.15;;;;;;;3.64;64.57;98864.06;7735594;32;38765;-69
2022/04/03 02:01:04;;;;;;;13.32;6.82;;;;;;;3.76;64.50;98862.06;7736891;32;37170;-69
2022/04/03 02:05:21;;;;;;;10.85;6.78;;;;;;;3.71;64.70;98867.41;7723651;32;39465;-69
2022/04/03 02:09:37;;;;;;;10.07;6.28;;;;;;;3.92;64.44;98870.38;7709878;32;39889;-69
2022/04/03 02:13:53;;;;;;;8.30;5.90;;;;;;;4.16;63.75;98864.69;7710597;32;38640;-69
2022/04/03 02:18:09;;;;;;;9.85;6.85;;;;;;;4.19;63.56;98875.81;7709676;32;38022;-68
2022/04/03 02:22:25;;;;;;;8.45;5.97;;;;;;;4.00;64.03;98883.41;7710387;32;39056;-68
2022/04/03 02:26:42;;;;;;;10.82;7.00;;;;;;;4.05;63.95;98885.34;7709403;32;40819;-69
2022/04/03 02:30:58;;;;;;;7.82;6.12;;;;;;;4.09;64.10;98887.28;7709410;32;37802;-69
2022/04/03 02:35:15;;;;;;;8.70;6.40;;;;;;;4.07;64.09;98886.75;7709371;32;36987;-69
2022/04/03 02:39:31;;;;;;;11.32;6.22;;;;;;;4.23;63.51;98897.72;7709196;32;40040;-69
2022/04/03 02:43:47;;;;;;;7.82;5.65;;;;;;;3.95;64.30;98896.84;7710104;32;39637;-69
2022/04/03 02:48:03;;;;;;;10.48;5.75;;;;;;;4.03;63.97;98904.47;7712783;32;37936;-69
2022/04/03 02:52:20;;;;;;;7.50;5.35;;;;;;;3.89;64.45;98903.22;7713482;32;37170;-69
2022/04/03 02:56:36;;;;;;;7.37;5.70;;;;;;;3.87;64.64;98913.44;7713044;32;37759;-69
2022/04/03 03:00:52;;;;;;;6.47;5.18;;;;;;;3.76;64.95;98921.38;7712572;32;40712;-70
2022/04/03 03:05:09;;;;;;;7.90;5.22;;;;;;;3.88;64.75;98920.44;7713234;32;38576;-69
2022/04/03 03:09:25;;;;;;;6.20;4.62;;;;;;;4.08;63.89;98923.41;7736693;32;37979;-69
2022/04/03 03:13:41;;;;;;;9.38;5.72;;;;;;;4.17;63.49;98933.78;7736330;32;38973;-69
2022/04/03 03:17:57;;;;;;;7.28;5.37;;;;;;;3.99;63.87;98937.59;7712382;32;39888;-69
2022/04/03 03:22:13;;;;;;;9.07;6.03;;;;;;;3.90;64.10;98948.81;7715263;32;38037;-69
2022/04/03 03:26:29;;;;;;;11.50;6.95;;;;;;;4.01;63.76;98941.66;7712164;32;37073;-68
2022/04/03 03:30:45;;;;;;;9.48;5.75;;;;;;;3.99;63.90;98951.91;7711948;32;38229;-70
2022/04/03 03:35:02;;;;;;;9.27;6.15;;;;;;;4.14;63.48;98962.91;7715620;32;39439;-70
2022/04/03 03:39:18;;;;;;;9.23;5.80;;;;;;;4.19;63.18;98958.63;7717437;32;38630;-69
2022/04/03 03:43:35;;;;;;;8.07;5.45;;;;;;;4.16;63.25;98961.81;7712224;32;37099;-69
2022/04/03 03:47:51;;;;;;;7.55;4.95;;;;;;;4.09;63.40;98968.22;7712135;32;39384;-69
2022/04/03 03:52:07;;;;;;;7.20;4.85;;;;;;;4.12;63.32;98962.34;7716959;32;40783;-69
2022/04/03 03:56:23;;;;;;;8.93;5.80;;;;;;;4.13;63.20;98972.03;7738505;32;37776;-71
2022/04/03 04:00:40;;;;;;;10.13;6.43;;;;;;;4.09;63.25;98979.00;7738725;32;37182;-69
2022/04/03 04:04:57;;;;;;;8.93;5.78;;;;;;;4.07;63.33;98978.44;7732800;32;39277;-69
2022/04/03 04:09:13;;;;;;;10.95;7.07;;;;;;;4.18;62.91;98992.06;7711923;32;39634;-69
2022/04/03 04:13:29;;;;;;;10.80;6.55;;;;;;;4.09;63.12;98999.78;7718391;32;38429;-69
2022/04/03 04:17:47;;;;;;;11.65;6.78;;;;;;;4.03;63.36;99001.56;7738445;32;36891;-69
2022/04/03 04:22:03;;;;;;;9.13;6.47;;;;;;;3.92;63.92;99010.59;7733062;32;39143;-68
2022/04/03 04:26:19;;;;;;;17.70;6.93;;;;;;;3.97;63.73;99018.75;7711577;32;39885;-69
2022/04/03 04:30:37;;;;;;;32.60;6.80;;;;;;;3.60;64.74;99023.84;7716725;32;37866;-70
2022/04/03 04:34:53;;;;;;;12.45;7.45;;;;;;;3.47;65.36;99035.78;7736973;32;37638;-69
2022/04/03 04:39:09;;;;;;;12.73;7.50;;;;;;;3.68;64.59;99040.41;7738240;32;39319;-69
2022/04/03 04:43:25;;;;;;;11.65;7.47;;;;;;;3.44;65.61;99052.41;7738614;32;40768;-69
2022/04/03 04:47:42;;;;;;;15.57;8.02;;;;;;;3.32;66.00;99065.94;7738542;32;38785;-69
2022/04/03 04:51:58;;;;;;;13.82;8.18;;;;;;;3.51;65.13;99059.28;7734918;32;37134;-69
2022/04/03 04:56:14;;;;;;;14.35;8.25;;;;;;;3.59;65.27;99071.56;7711394;32;39502;-69
2022/04/03 05:00:31;;;;;;;13.57;8.43;;;;;;;3.37;66.02;99085.72;7711117;32;39969;-69
2022/04/03 05:04:48;;;;;;;13.60;9.50;;;;;;;3.43;65.85;99089.31;7715081;32;37809;-69
2022/04/03 05:09:04;;;;;;;14.75;9.30;;;;;;;3.48;65.89;99100.19;7736975;32;38060;-69
2022/04/03 05:13:25;;;;;;;14.35;9.20;;;;;;;3.41;66.27;99090.62;7737886;32;40192;-68
2022/04/03 05:17:42;;;;;;;15.60;9.70;;;;;;;3.55;65.75;99094.63;7724681;32;39988;-70
2022/04/03 05:21:59;;;;;;;13.95;8.85;;;;;;;3.53;65.61;99097.56;7732099;32;38419;-68
2022/04/03 05:26:17;;;;;;;15.07;9.60;;;;;;;3.58;65.52;99113.84;7710792;32;37145;-69
2022/04/03 05:30:33;;;;;;;14.40;9.10;;;;;;;3.63;65.35;99115.81;7709684;32;39071;-68
2022/04/03 05:34:49;;;;;;;15.15;9.27;;;;;;;3.53;65.78;99119.13;7713624;32;40502;-69
2022/04/03 05:39:05;;;;;;;15.13;9.63;;;;;;;3.94;64.36;99127.94;7710592;32;38370;-70
2022/04/03 05:43:21;;;;;;;13.10;8.85;;;;;;;4.00;63.93;99130.72;7710619;32;37105;-69
2022/04/03 05:47:37;;;;;;;13.57;9.32;;;;;;;3.92;64.53;99134.66;7696661;32;39345;-68
2022/04/03 05:51:58;;;;;;;17.73;10.10;;;;;;;4.00;64.25;99142.34;7716559;32;39978;-69
2022/04/03 05:56:14;;;;;;;15.32;9.73;;;;;;;3.99;64.48;99139.87;7736992;32;38976;-69
2022/04/03 06:00:31;;;;;;;13.85;8.55;;;;;;;4.16;63.87;99150.66;7737163;32;38252;-69
2022/04/03 06:04:47;;;;;;;15.43;9.55;;;;;;;4.12;64.11;99156.56;7732935;32;39002;-69
2022/04/03 06:09:04;;;;;;;16.20;9.93;;;;;;;4.07;64.04;99164.56;7715681;32;39647;-69
2022/04/03 06:13:22;;;;;;;16.83;10.77;;;;;;;3.68;65.02;99177.91;7717961;32;38488;-69
2022/04/03 06:17:38;;;;;;;17.02;11.38;;;;;;;4.05;64.14;99182.06;7719762;32;35903;-70
2022/04/03 06:21:54;;;;;;;18.33;11.68;;;;;;;4.07;63.93;99180.75;7736150;32;40043;-69
2022/04/03 06:26:10;;;;;;;15.55;10.43;;;;;;;3.99;64.06;99186.53;7718657;32;40898;-67
2022/04/03 06:30:26;;;;;;;16.83;10.60;;;;;;;3.97;64.79;99195.94;7735086;32;38021;-68
2022/04/03 06:34:42;;;;;;;16.45;10.55;;;;;;;4.21;63.43;99196.59;7738863;32;37395;-68
2022/04/03 06:38:58;;;;;;;18.77;11.82;;;;;;;4.24;63.91;99202.38;7739042;32;39401;-69
2022/04/03 06:43:16;;;;;;;19.00;11.63;;;;;;;4.24;64.02;99212.31;7709752;32;39518;-69
2022/04/03 06:47:32;;;;;;;16.50;11.27;;;;;;;4.45;64.98;99208.91;7695567;32;37487;-69
2022/04/03 06:51:48;;;;;;;14.82;10.07;;;;;;;4.79;62.74;99210.75;7695211;32;37133;-69
2022/04/03 06:56:04;;;;;;;16.05;10.75;;;;;;;4.76;62.58;99214.78;7710702;32;39302;-67
2022/04/03 07:00:20;;;;;;;14.57;9.90;;;;;;;4.88;62.06;99211.94;7698685;32;39979;-67
2022/04/03 07:04:36;;;;;;;16.70;10.38;;;;;;;5.36;61.32;99221.22;7712514;32;38683;-68
2022/04/03 07:08:53;;;;;;;16.65;11.45;;;;;;;5.35;61.74;99232.31;7712114;32;37247;-68
2022/04/03 07:13:10;;;;;;;17.50;11.50;;;;;;;5.88;60.35;99235.34;7712247;32;39418;-67
2022/04/03 07:17:26;;;;;;;18.48;11.88;;;;;;;5.60;59.61;99248.03;7712124;32;39942;-67
2022/04/03 07:21:42;;;;;;;18.08;11.43;;;;;;;6.11;59.67;99255.94;7712110;32;39033;-67
2022/04/03 07:25:58;;;;;;;17.73;12.45;;;;;;;5.97;57.23;99259.03;7711833;32;37382;-67
2022/04/03 07:30:15;;;;;;;16.60;10.75;;;;;;;6.36;57.72;99264.31;7711693;32;39127;-68
2022/04/03 07:34:31;;;;;;;21.02;11.38;;;;;;;6.37;58.76;99274.03;7728734;32;40595;-66
2022/04/03 07:38:47;;;;;;;20.90;13.00;;;;;;;5.96;61.56;99287.16;7736421;32;37598;-66
2022/04/03 07:43:03;;;;;;;26.23;14.65;;;;;;;6.06;59.23;99297.28;7710810;32;37812;-67
2022/04/03 07:47:19;;;;;;;23.38;14.98;;;;;;;5.14;59.69;99302.31;7710508;32;39719;-67
2022/04/03 07:51:35;;;;;;;27.30;15.60;;;;;;;5.31;59.92;99307.66;7717587;32;40026;-66
2022/04/03 07:55:51;;;;;;;28.58;15.90;;;;;;;6.01;58.60;99311.56;7731535;32;37895;-66
2022/04/03 08:00:10;;;;;;;28.87;16.02;;;;;;;5.42;60.36;99324.88;7736955;32;37388;-68
2022/04/03 08:04:27;;;;;;;26.25;15.88;;;;;;;5.48;60.25;99329.25;7738596;32;39129;-67
2022/04/03 08:08:43;;;;;;;23.38;15.18;;;;;;;5.49;59.31;99335.50;7738490;32;39859;-67
2022/04/03 08:12:59;;;;;;;24.83;16.08;;;;;;;5.38;59.10;99340.75;7736137;32;38487;-67
2022/04/03 08:17:15;;;;;;;25.10;15.48;;;;;;;5.57;59.40;99346.72;7736739;32;36864;-68
2022/04/03 08:21:31;;;;;;;21.98;13.00;;;;;;;6.02;58.61;99344.87;7737696;32;39968;-67
2022/04/03 08:25:48;;;;;;;25.83;15.15;;;;;;;6.24;55.23;99358.34;7737494;32;39839;-67
2022/04/03 08:30:04;;;;;;;25.05;13.43;;;;;;;6.08;57.34;99365.50;7737942;32;38769;-67
2022/04/03 08:34:20;;;;;;;19.98;13.15;;;;;;;5.33;58.76;99367.72;7738029;32;37324;-67
2022/04/03 08:38:56;;;;;;;26.70;15.15;;;;;;;5.56;56.84;99372.09;7737885;32;40513;-66
2022/04/03 08:43:13;;;;;;;26.92;15.05;;;;;;;5.85;59.79;99377.38;7723259;32;40814;-68
2022/04/03 08:47:30;;;;;;;19.27;13.50;;;;;;;6.11;59.70;99381.22;7738141;32;38450;-68
2022/04/03 08:51:47;;;;;;;22.83;13.90;;;;;;;6.24;57.82;99387.31;7738177;32;37189;-68
2022/04/03 08:56:03;;;;;;;23.30;14.45;;;;;;;6.31;56.35;99388.78;7738185;32;39958;-67
2022/04/03 09:00:20;;;;;;;25.48;13.57;;;;;;;6.60;57.16;99399.37;7724109;32;40777;-67
2022/04/03 09:04:37;;;;;;;22.02;13.60;;;;;;;6.67;55.91;99399.97;7737850;32;38015;-67
2022/04/03 09:08:53;;;;;;;25.52;14.27;;;;;;;6.32;55.27;99403.94;7737938;32;37268;-68
2022/04/03 09:13:23;;;;;;;17.65;12.30;;;;;;;7.22;56.47;99403.44;7737864;32;40212;-68
2022/04/03 09:18:00;;;;;;;23.25;12.55;;;;;;;7.57;54.54;99412.94;7721489;32;39667;-67
2022/04/03 09:22:26;;;;;;;19.62;12.13;;;;;;;7.18;52.05;99415.09;7722755;32;36922;-68
2022/04/03 09:26:43;;;;;;;20.62;11.98;;;;;;;7.20;51.74;99421.06;7709611;32;38160;-68
2022/04/03 09:30:59;;;;;;;23.27;11.95;;;;;;;7.08;50.58;99427.47;7732208;32;39952;-68
2022/04/03 09:35:17;;;;;;;22.25;12.98;;;;;;;7.32;52.10;99424.41;7727710;32;40450;-68
2022/04/03 09:39:34;;;;;;;20.70;12.75;;;;;;;7.36;52.26;99422.81;7737436;32;37957;-68
2022/04/03 09:43:50;;;;;;;23.17;12.13;;;;;;;6.76;52.09;99432.84;7737177;32;37173;-68
2022/04/03 09:48:29;;;;;;;20.23;12.52;;;;;;;7.38;49.59;99434.25;7720639;32;40136;-68
2022/04/03 09:52:48;;;;;;;21.80;12.15;;;;;;;7.52;52.78;99437.34;7709768;32;41115;-68
2022/04/03 09:57:21;;;;;;;20.92;12.15;;;;;;;7.62;49.94;99453.69;7711035;32;38493;-66
2022/04/03 10:01:42;;;;;;;18.30;10.73;;;;;;;7.80;49.24;99451.63;7708864;32;38007;-67
2022/04/03 10:05:58;;;;;;;20.48;11.32;;;;;;;8.05;49.51;99459.09;7709889;32;40258;-67
2022/04/03 10:10:15;;;;;;;22.65;11.75;;;;;;;7.87;49.27;99461.16;7723359;32;40815;-68
2022/04/03 10:14:31;;;;;;;17.30;11.02;;;;;;;7.61;48.67;99459.37;7736439;32;37569;-67
2022/04/03 10:18:49;;;;;;;18.60;10.82;;;;;;;7.97;48.56;99454.13;7719421;32;37255;-68
2022/04/03 10:23:11;;;;;;;18.30;10.63;;;;;;;7.42;48.86;99470.59;7732342;32;39314;-68
2022/04/03 10:27:37;;;;;;;16.00;10.57;;;;;;;7.60;46.62;99463.94;7711512;32;41081;-68
2022/04/03 10:31:58;;;;;;;17.05;10.68;;;;;;;7.88;45.43;99462.81;7708134;32;38016;-67
2022/04/03 10:36:22;;;;;;;18.08;9.50;;;;;;;8.55;47.72;99465.03;7717991;32;37652;-69
2022/04/03 10:40:39;;;;;;;18.15;10.43;;;;;;;8.87;45.53;99473.03;7735964;32;39380;-68
2022/04/03 10:45:13;;;;;;;16.65;10.65;;;;;;;8.71;42.83;99476.78;7735787;32;40614;-68
2022/04/03 10:49:30;;;;;;;17.50;10.25;;;;;;;8.18;47.88;99482.25;7733032;32;38718;-68
2022/04/03 10:53:54;;;;;;;17.10;10.07;;;;;;;7.93;45.59;99480.19;7707788;32;38265;-68
2022/04/03 10:58:16;;;;;;;17.17;9.65;;;;;;;7.76;45.50;99481.19;7707719;32;38926;-68
2022/04/03 11:02:36;;;;;;;16.15;10.35;;;;;;;7.57;46.48;99488.06;7707757;32;40764;-68
2022/04/03 11:07:11;;;;;;;15.93;9.93;;;;;;;7.18;44.13;99499.94;7698274;32;37828;-67
2022/04/03 11:11:34;;;;;;;17.17;10.63;;;;;;;7.77;44.27;99498.28;7711035;32;37229;-67
2022/04/03 11:16:02;;;;;;;17.58;10.13;;;;;;;6.86;46.67;99521.56;7711188;32;40120;-67
2022/04/03 11:20:42;;;;;;;15.13;10.05;;;;;;;7.58;48.15;99511.41;7717832;32;39971;-68
2022/04/03 11:24:59;;;;;;;16.37;9.68;;;;;;;8.38;43.73;99506.81;7715950;32;38134;-67
2022/04/03 11:29:16;;;;;;;17.52;10.27;;;;;;;6.97;43.51;99517.91;7710653;32;37175;-68
2022/04/03 11:33:33;;;;;;;15.40;9.50;;;;;;;7.05;43.20;99512.00;7708224;32;37808;-68
2022/04/03 11:37:49;;;;;;;16.17;9.75;;;;;;;7.04;44.68;99507.66;7711117;32;39900;-68
2022/04/03 11:42:09;;;;;;;17.60;9.85;;;;;;;7.31;44.32;99504.13;7710681;32;38324;-72
2022/04/03 11:46:26;;;;;;;16.92;9.75;;;;;;;8.06;43.12;99496.03;7728503;32;37836;-68
2022/04/03 11:50:43;;;;;;;14.73;9.48;;;;;;;8.55;41.42;99500.38;7728230;32;39051;-69
2022/04/03 11:55:02;;;;;;;13.68;9.10;;;;;;;8.67;41.84;99497.44;7710737;32;41041;-68
2022/04/03 11:59:21;;;;;;;19.77;9.13;;;;;;;8.81;37.91;99495.84;7711361;32;37728;-69
2022/04/03 12:03:37;;;;;;;17.40;9.50;;;;;;;9.59;38.62;99489.44;7710354;32;36798;-68
2022/04/03 12:07:54;;;;;;;15.40;8.02;;;;;;;9.65;33.43;99482.87;7711502;32;39358;-68
2022/04/03 12:12:11;;;;;;;12.55;8.50;;;;;;;9.55;35.41;99488.34;7711259;32;40855;-68
2022/04/03 12:16:32;;;;;;;12.90;8.85;;;;;;;10.27;35.52;99489.03;7708862;32;38350;-68
2022/04/03 12:20:50;;;;;;;15.52;8.98;;;;;;;8.77;37.31;99500.19;7719020;32;38090;-68
2022/04/03 12:25:07;;;;;;;14.38;8.95;;;;;;;9.79;37.22;99488.59;7737963;32;39290;-69
2022/04/03 12:29:25;;;;;;;14.55;8.95;;;;;;;9.39;36.04;99495.69;7724325;32;40850;-68
2022/04/03 12:33:41;;;;;;;17.10;9.32;;;;;;;9.68;35.43;99490.53;7738006;32;37269;-67
2022/04/03 12:37:57;;;;;;;15.95;9.45;;;;;;;9.84;35.96;99504.13;7738377;32;37818;-67
2022/04/03 12:42:23;;;;;;;12.48;8.13;;;;;;;8.94;36.00;99495.34;7724358;32;40236;-68
2022/04/03 12:46:41;;;;;;;16.25;10.20;;;;;;;9.88;35.97;99486.12;7710733;32;39648;-68
2022/04/03 12:51:05;;;;;;;13.73;8.82;;;;;;;9.31;37.12;99494.34;7721886;32;38063;-67
2022/04/03 12:55:22;;;;;;;17.70;9.90;;;;;;;8.37;37.14;99498.91;7724252;32;37872;-67
2022/04/03 12:59:38;;;;;;;13.05;8.70;;;;;;;8.57;38.70;99501.75;7737854;32;39312;-68
2022/04/03 13:03:54;;;;;;;16.52;9.07;;;;;;;8.65;36.43;99503.94;7737537;32;41985;-68
2022/04/03 13:08:12;;;;;;;13.77;8.75;;;;;;;9.19;36.71;99501.91;7736158;32;38024;-68
2022/04/03 13:12:29;;;;;;;13.15;8.48;;;;;;;8.89;35.88;99508.09;7737448;32;37113;-69
2022/04/03 13:16:51;;;;;;;14.02;8.48;;;;;;;9.88;35.82;99500.59;7723672;32;39229;-69
2022/04/03 13:21:17;;;;;;;12.63;8.40;;;;;;;9.32;38.14;99501.38;7701972;32;40096;-68
2022/04/03 13:25:33;;;;;;;12.70;8.30;;;;;;;9.13;33.95;99503.00;7710389;32;37903;-69
2022/04/03 13:29:49;;;;;;;12.95;8.55;;;;;;;9.23;35.75;99508.47;7709695;32;37630;-69
2022/04/03 13:34:06;;;;;;;15.52;8.63;;;;;;;8.83;33.85;99508.09;7710401;32;39503;-68
2022/04/03 13:38:22;;;;;;;13.85;8.38;;;;;;;8.40;34.57;99517.38;7710236;32;41317;-69
2022/04/03 13:42:38;;;;;;;12.80;8.68;;;;;;;8.16;37.28;99506.94;7710110;32;37980;-68
2022/04/03 13:46:56;;;;;;;13.20;9.00;;;;;;;8.77;35.92;99511.88;7714297;32;37520;-68
2022/04/03 13:51:15;;;;;;;19.77;9.57;;;;;;;7.43;38.95;99522.94;7732358;32;39743;-69
2022/04/03 13:55:32;;;;;;;12.32;8.57;;;;;;;7.23;37.49;99521.69;7708989;32;39961;-70
2022/04/03 13:59:48;;;;;;;13.30;8.35;;;;;;;7.56;37.61;99524.44;7710078;32;37792;-75
2022/04/03 14:04:05;;;;;;;16.20;8.80;;;;;;;7.93;38.88;99523.63;7725852;32;37135;-77
2022/04/03 14:08:21;;;;;;;20.62;9.40;;;;;;;7.96;37.88;99523.91;7708889;32;39102;-77
2022/04/03 14:12:38;;;;;;;12.73;8.70;;;;;;;8.00;36.81;99526.91;7708798;32;40087;-76
2022/04/03 14:16:54;;;;;;;14.75;9.13;;;;;;;8.08;37.29;99535.41;7714614;32;38557;-77
2022/04/03 14:21:10;;;;;;;15.20;8.93;;;;;;;7.70;36.82;99541.91;7734772;32;37160;-78
2022/04/03 14:25:26;;;;;;;12.48;8.73;;;;;;;8.27;37.21;99530.34;7734950;32;40146;-77
2022/04/03 14:29:43;;;;;;;11.43;8.02;;;;;;;9.02;35.14;99541.03;7735001;32;39939;-78
2022/04/03 14:33:59;;;;;;;13.02;8.95;;;;;;;9.31;34.70;99546.03;7732367;32;37606;-77
2022/04/03 14:38:16;;;;;;;12.40;8.10;;;;;;;9.95;32.93;99546.56;7734859;32;37212;-79
2022/04/03 14:42:32;;;;;;;13.77;9.13;;;;;;;10.17;33.65;99559.09;7737845;32;39862;-78
2022/04/03 14:47:05;;;;;;;12.82;8.32;;;;;;;9.30;34.48;99563.41;7736574;32;40053;-77
2022/04/03 14:51:21;;;;;;;16.83;9.88;;;;;;;9.95;33.29;99552.00;7736059;32;38717;-78
2022/04/03 14:55:38;;;;;;;13.32;9.38;;;;;;;8.85;34.79;99559.47;7738304;32;37893;-80
2022/04/03 14:59:55;;;;;;;14.87;9.40;;;;;;;8.38;34.08;99565.72;7738364;32;39435;-77
2022/04/03 15:04:11;;;;;;;14.93;8.63;;;;;;;8.42;36.48;99556.81;7738062;32;39743;-77
2022/04/03 15:08:27;;;;;;;13.18;8.48;;;;;;;8.06;34.97;99578.28;7738014;32;38414;-76
2022/04/03 15:12:43;;;;;;;14.63;8.98;;;;;;;8.01;35.89;99569.28;7737499;32;37409;-75
2022/04/03 15:17:00;;;;;;;16.42;9.10;;;;;;;8.40;36.98;99571.69;7736127;32;39599;-76
2022/04/03 15:21:16;;;;;;;12.93;9.02;;;;;;;8.31;34.96;99579.53;7737086;32;39468;-75
2022/04/03 15:25:32;;;;;;;13.62;8.68;;;;;;;8.34;36.21;99584.44;7723787;32;37876;-78
2022/04/03 15:29:53;;;;;;;14.27;9.20;;;;;;;8.64;34.31;99581.13;7738141;32;37160;-77
2022/04/03 15:34:11;;;;;;;15.15;9.45;;;;;;;8.69;34.86;99591.19;7737673;32;39363;-76
2022/04/03 15:38:27;;;;;;;14.05;8.70;;;;;;;9.01;35.19;99588.34;7738465;32;39945;-77
2022/04/03 15:42:43;;;;;;;13.35;8.80;;;;;;;9.62;33.26;99596.94;7737563;32;38871;-77
2022/04/03 15:47:00;;;;;;;14.75;8.88;;;;;;;9.14;33.85;99606.09;7721879;32;37913;-79
2022/04/03 15:51:21;;;;;;;14.52;8.77;;;;;;;8.45;33.83;99617.94;7736589;32;39517;-77
2022/04/03 15:55:37;;;;;;;13.77;8.27;;;;;;;9.01;32.64;99610.09;7720163;32;40006;-76
2022/04/03 15:59:54;;;;;;;14.55;8.20;;;;;;;8.58;32.74;99633.81;7735640;32;38580;-77
2022/04/03 16:04:11;;;;;;;13.35;8.43;;;;;;;9.11;32.80;99625.66;7738172;32;37937;-76
2022/04/03 16:08:27;;;;;;;15.80;8.40;;;;;;;8.95;31.92;99627.50;7738286;32;39409;-76
2022/04/03 16:12:43;;;;;;;14.48;8.52;;;;;;;8.59;32.41;99635.44;7738339;32;39998;-74
2022/04/03 16:16:59;;;;;;;12.90;8.18;;;;;;;8.47;33.30;99645.69;7723371;32;38649;-78
2022/04/03 16:21:16;;;;;;;12.57;8.07;;;;;;;8.05;33.32;99658.13;7736979;32;38674;-78
2022/04/03 16:25:33;;;;;;;14.18;8.43;;;;;;;8.44;33.09;99654.38;7736891;32;39523;-77
2022/04/03 16:29:49;;;;;;;11.65;7.78;;;;;;;7.94;34.18;99661.00;7735530;32;40459;-78
2022/04/03 16:34:07;;;;;;;16.45;7.55;;;;;;;8.03;33.61;99673.00;7719704;32;37851;-78
2022/04/03 16:38:23;;;;;;;11.75;8.07;;;;;;;7.77;32.87;99686.34;7736748;32;37442;-76
2022/04/03 16:42:42;;;;;;;11.65;7.70;;;;;;;7.62;32.83;99699.72;7734129;32;39442;-76
2022/04/03 16:46:59;;;;;;;11.73;7.40;;;;;;;7.25;34.06;99703.91;7737075;32;40320;-76
2022/04/03 16:51:15;;;;;;;12.23;7.37;;;;;;;6.24;36.09;99718.41;7715289;32;242487;-75
2022/04/03 16:55:32;;;;;;;13.05;8.43;;;;;;;6.68;35.95;99721.28;7737254;32;37163;-75
2022/04/03 16:59:48;;;;;;;11.68;8.27;;;;;;;6.38;36.90;99738.72;7737881;32;39386;-76
2022/04/03 17:04:04;;;;;;;14.13;8.02;;;;;;;6.32;36.82;99739.66;7736715;32;39967;-75
2022/04/03 17:08:20;;;;;;;12.55;7.70;;;;;;;5.90;37.35;99749.97;7737824;32;38684;-75
2022/04/03 17:12:40;;;;;;;10.10;7.30;;;;;;;5.52;36.48;99754.94;7737764;32;37199;-75
2022/04/03 17:17:00;;;;;;;11.52;7.55;;;;;;;5.57;36.97;99757.75;7737517;32;40148;-75
2022/04/03 17:21:16;;;;;;;11.27;7.28;;;;;;;5.57;36.79;99770.44;7721237;32;40058;-76
2022/04/03 17:25:33;;;;;;;15.27;7.80;;;;;;;5.33;37.25;99775.91;7709343;32;37964;-76
2022/04/03 17:29:49;;;;;;;11.30;7.50;;;;;;;5.36;38.12;99774.59;7710881;32;37322;-75
2022/04/03 17:34:05;;;;;;;13.82;7.60;;;;;;;5.11;38.81;99781.09;7713519;32;39567;-76
2022/04/03 17:38:21;;;;;;;11.57;7.70;;;;;;;4.91;40.24;99791.44;7737425;32;40988;-74
2022/04/03 17:42:38;;;;;;;11.88;7.93;;;;;;;4.95;39.67;99796.16;7725087;32;38114;-72
2022/04/03 17:46:54;;;;;;;16.25;8.68;;;;;;;4.42;40.09;99808.63;7725145;32;37051;-72
2022/04/03 17:51:10;;;;;;;11.82;7.82;;;;;;;4.71;40.55;99816.91;7720085;32;39327;-70
2022/04/03 17:55:26;;;;;;;11.75;8.00;;;;;;;4.50;41.81;99823.66;7709008;32;40676;-71
2022/04/03 17:59:43;;;;;;;13.02;7.50;;;;;;;4.44;41.07;99833.50;7709885;32;38379;-71
2022/04/03 18:03:59;;;;;;;15.07;6.97;;;;;;;4.55;40.27;99839.16;7696079;32;37257;-71
2022/04/03 18:08:15;;;;;;;12.68;7.65;;;;;;;4.46;41.66;99847.59;7709844;32;40189;-71
2022/04/03 18:12:32;;;;;;;11.27;7.62;;;;;;;4.58;40.66;99841.41;7709695;32;40789;-70
2022/04/03 18:16:53;;;;;;;11.38;7.45;;;;;;;4.50;40.06;99854.19;7729867;32;37850;-71
2022/04/03 18:21:09;;;;;;;11.38;7.37;;;;;;;4.47;39.98;99860.06;7730291;32;37817;-70
2022/04/03 18:25:25;;;;;;;11.82;7.78;;;;;;;4.59;40.27;99872.75;7738417;32;39430;-69
2022/04/03 18:29:41;;;;;;;13.25;8.23;;;;;;;4.56;40.93;99878.63;7738991;32;40746;-70
2022/04/03 18:33:58;;;;;;;12.07;8.30;;;;;;;4.51;40.71;99890.94;7722001;32;37816;-71
2022/04/03 18:38:18;;;;;;;18.83;10.18;;;;;;;4.63;40.51;99895.56;7711545;32;37113;-71
2022/04/03 18:42:40;;;;;;;16.05;9.30;;;;;;;4.43;40.82;99910.16;7712372;32;39545;-71
2022/04/03 18:47:01;;;;;;;14.13;8.02;;;;;;;4.31;42.22;99903.88;7711597;32;40067;-71
2022/04/03 18:51:18;;;;;;;12.15;8.30;;;;;;;4.42;41.11;99913.91;7712387;32;38654;-71
2022/04/03 18:55:41;;;;;;;12.55;8.02;;;;;;;4.38;41.69;99917.28;7711726;32;37152;-71
2022/04/03 18:59:57;;;;;;;14.87;9.13;;;;;;;4.31;40.68;99926.31;7711720;32;39230;-71
2022/04/03 19:04:13;;;;;;;17.00;9.55;;;;;;;4.17;41.20;99924.81;7716853;32;39984;-71
2022/04/03 19:08:30;;;;;;;16.83;8.93;;;;;;;4.20;40.74;99931.63;7737756;32;38015;-70
2022/04/03 19:12:47;;;;;;;12.48;7.97;;;;;;;4.02;42.53;99949.50;7738504;32;37295;-70
2022/04/03 19:17:06;;;;;;;13.70;7.93;;;;;;;4.18;41.47;99948.06;7738208;32;39598;-70
2022/04/03 19:21:22;;;;;;;12.13;7.85;;;;;;;3.95;41.74;99948.75;7715211;32;39418;-70
2022/04/03 19:25:39;;;;;;;10.25;7.30;;;;;;;3.79;42.64;99949.31;7710530;32;37821;-71
2022/04/03 19:30:01;;;;;;;11.70;7.30;;;;;;;3.86;42.37;99955.47;7711077;32;37070;-71
2022/04/03 19:34:18;;;;;;;12.35;6.95;;;;;;;3.87;42.64;99970.59;7712463;32;38948;-70
2022/04/03 19:38:37;;;;;;;11.12;7.15;;;;;;;3.68;43.40;99959.78;7728532;32;41126;-70
2022/04/03 19:42:53;;;;;;;13.27;7.47;;;;;;;3.79;43.23;99960.09;7718456;32;37504;-72
2022/04/03 19:47:09;;;;;;;13.70;7.05;;;;;;;3.56;44.13;99967.78;7711158;32;37169;-71
2022/04/03 19:51:26;;;;;;;10.55;7.53;;;;;;;3.46;44.67;99977.41;7710846;32;39437;-69
2022/04/03 19:55:42;;;;;;;10.27;6.87;;;;;;;3.62;44.24;99981.41;7711110;32;40726;-73
2022/04/03 20:00:03;;;;;;;13.00;7.12;;;;;;;3.35;45.42;99987.03;7710683;32;37912;-71
2022/04/03 20:04:20;;;;;;;10.65;6.50;;;;;;;3.42;45.10;99989.69;7725379;32;37899;-70
2022/04/03 20:08:37;;;;;;;11.18;6.93;;;;;;;3.43;45.19;100000.22;7737492;32;38943;-71